岡山グライダークラブ活動状況掲示板あなたは無料カウンター人目の訪問者です

岡山グライダークラブ
岡山市浦安南町639-1 岡南飛行場
 使用機:シャイベ式 SF25C型 ファルケ   JA2330
      ヴァレンティン式17E型 タイフーン  JA2342
 練習日:毎日曜日  クラブルーム:電話 086-265-1810
この掲示板は岡山グライダークラブの活動状況をお知らせする掲示板です。
!!!この掲示板は投稿規制をしています。!!!
クラブ関連各種情報は 岡山グライダークラブクラブルーム      を       .
  ブリーフイング情報は  岡山グライダークラブブリーフィングルーム  をご覧下さい。 .
※写真はクリックすると拡大して見ることが出来ます。
岡南飛行場へのアクセス等は 岡南飛行場管理事務所 をご覧ください。
クラブの ホームページ ができました。

 
8月18日
by OGC at 2019/8/18(日) 22:23:30 No.20190818222055  削除コメント
1024 x 768 x 62,609バイト
No.1

08月18日
本日の参加者
  会員      13名
  その他      0名


@本日の様子




METAR
RJBK 180100Z 17003KT 120V210 08KM FEW035CU SCT/// 30/24 Q1007 A2975
RJOB 180100Z VRB04KT 9000 FEW015 SCT020 29/24 Q1008
RJOT 180100Z VRB02KT 9999 FEW030 SCT/// 29/23 Q1008
RJOA 180100Z 15004KT 070V240 9999 SCT020 SCT140 BKN/// 28/20 Q1009
TAF
RJOB 172306Z 1800/1906 14004KT 9999 FEW020
         BECMG 1804/1806 20005KT
         BECMG 1812/1815 03005KT
RJOT 172311Z 1800/1906 31004KT 9999 FEW030
         BECMG 1809/1811 15005KT
RJOA 172313Z 1800/1906 15004KT 9999 FEW025
         BECMG 1810/1812 32005KT
         BECMG 1821/1900 15005KT

待望のファルケの訓練フライト再開で多くの訓練生が集まったのですが。。。
教官が1名と厳しーい状況になってしまいましたが、何とかクリアできました。お疲れさまでした。
一方、タイフーンは順調に整備も進みもう少しで整備完了です。


解散    18:00

1番機  11:25離陸 撤収機  17:05着陸 

SF25C JA2330 ファルケ     09Flt.3h35min  
17E   JA2342 タイフーン    00Flt.0h00min  
合計                    09Flt.3h35min

    << 戻る || ホームページ || 最新の掲示板へ